Time;durP1;ratioP1;P1;durP2;ratioP2;P2;SDS_P1;SDS_P2;PMS_P1;PMS_P2;Temp;Humidity;BMP_temperature;BMP_pressure;BME280_temperature;BME280_humidity;BME280_pressure;Samples;Min_cycle;Max_cycle;Signal;HPM_P1;HPM_P2
2022/04/15 00:00:39;;;;;;;16.05;7.32;;;;;;;8.32;47.85;95899.03;5065541;28;20028;-68
2022/04/15 00:03:06;;;;;;;9.75;6.90;;;;;;;8.28;47.27;95896.66;5066325;28;20016;-68
2022/04/15 00:05:36;;;;;;;11.93;7.25;;;;;;;8.30;47.10;95896.53;5065632;28;20510;-69
2022/04/15 00:08:05;;;;;;;12.32;7.05;;;;;;;8.26;47.97;95901.31;5065859;28;20445;-68
2022/04/15 00:10:31;;;;;;;12.02;7.05;;;;;;;8.25;47.41;95902.28;5065614;28;20031;-68
2022/04/15 00:12:57;;;;;;;20.88;7.15;;;;;;;8.26;47.38;95893.31;5065813;28;20029;-68
2022/04/15 00:15:23;;;;;;;11.52;6.72;;;;;;;8.23;47.50;95893.59;5047960;28;20157;-68
2022/04/15 00:17:48;;;;;;;12.48;7.18;;;;;;;8.15;48.08;95893.50;5065102;28;20029;-68
2022/04/15 00:20:14;;;;;;;13.70;7.50;;;;;;;8.13;48.53;95898.16;5065691;28;20021;-68
2022/04/15 00:22:40;;;;;;;12.20;6.80;;;;;;;8.02;48.16;95902.72;5065198;28;20111;-69
2022/04/15 00:25:06;;;;;;;12.85;7.40;;;;;;;7.89;48.10;95904.91;5065416;28;20514;-69
2022/04/15 00:27:31;;;;;;;16.75;8.05;;;;;;;7.92;48.16;95901.94;5065605;28;20218;-69
2022/04/15 00:29:57;;;;;;;10.75;7.20;;;;;;;7.94;48.03;95907.97;5065782;28;20024;-68
2022/04/15 00:32:22;;;;;;;14.43;7.43;;;;;;;7.92;48.30;95901.94;5065292;28;20475;-68
2022/04/15 00:34:47;;;;;;;14.15;6.97;;;;;;;7.94;48.52;95904.44;5065130;28;20502;-67
2022/04/15 00:37:13;;;;;;;14.85;7.78;;;;;;;7.91;48.01;95902.94;5065554;28;20035;-68
2022/04/15 00:39:45;;;;;;;14.38;7.22;;;;;;;7.88;48.26;95904.06;5064835;28;20510;-68
2022/04/15 00:42:10;;;;;;;13.63;6.82;;;;;;;7.80;49.01;95893.28;5065270;28;20016;-69
2022/04/15 00:44:36;;;;;;;12.88;7.95;;;;;;;7.72;49.24;95891.34;5065069;28;20021;-68
2022/04/15 00:47:01;;;;;;;15.93;8.02;;;;;;;7.64;49.19;95893.94;5047487;28;20479;-67
2022/04/15 00:49:27;;;;;;;11.57;7.45;;;;;;;7.69;49.26;95896.97;5064972;28;20067;-68
2022/04/15 00:51:52;;;;;;;13.68;8.45;;;;;;;7.62;49.82;95891.41;5065151;28;20020;-68
2022/04/15 00:54:18;;;;;;;11.88;7.88;;;;;;;7.60;50.36;95898.72;5047119;28;20079;-68
2022/04/15 00:56:44;;;;;;;15.88;6.90;;;;;;;7.64;50.17;95893.94;5064964;28;20376;-67
2022/04/15 00:59:09;;;;;;;13.80;7.65;;;;;;;7.67;49.50;95888.28;5047346;28;20372;-68
2022/04/15 01:01:35;;;;;;;12.55;6.55;;;;;;;7.63;48.71;95908.25;5046526;28;20594;-68
2022/04/15 01:04:00;;;;;;;14.23;6.82;;;;;;;7.51;49.29;95911.09;5030533;28;20461;-68
2022/04/15 01:06:27;;;;;;;11.20;6.82;;;;;;;7.44;49.82;95912.69;5046477;28;20036;-68
2022/04/15 01:08:52;;;;;;;10.98;7.07;;;;;;;7.39;49.60;95899.78;5030424;28;20473;-67
2022/04/15 01:11:19;;;;;;;12.27;7.45;;;;;;;7.29;49.81;95912.28;5030471;28;20050;-68
2022/04/15 01:13:44;;;;;;;13.82;7.20;;;;;;;7.26;49.75;95912.59;5046462;28;20031;-67
2022/04/15 01:16:10;;;;;;;10.55;6.32;;;;;;;7.34;49.43;95909.19;5065412;28;20021;-68
2022/04/15 01:18:35;;;;;;;12.52;6.47;;;;;;;7.29;49.09;95907.81;5046171;28;20074;-67
2022/04/15 01:21:01;;;;;;;9.25;6.13;;;;;;;7.19;49.70;95906.16;5064749;28;20403;-67
2022/04/15 01:23:26;;;;;;;9.38;6.53;;;;;;;7.10;49.25;95902.50;5029506;28;20029;-68
2022/04/15 01:25:52;;;;;;;12.05;6.30;;;;;;;7.02;49.61;95895.22;5065142;28;20044;-67
2022/04/15 01:28:19;;;;;;;10.68;6.07;;;;;;;7.00;49.63;95902.53;5064367;28;20024;-68
2022/04/15 01:30:45;;;;;;;10.60;6.25;;;;;;;7.00;50.01;95897.19;5064313;28;20458;-67
2022/04/15 01:33:10;;;;;;;10.82;6.22;;;;;;;6.94;49.73;95898.63;5064786;28;20052;-67
2022/04/15 01:35:35;;;;;;;11.15;6.35;;;;;;;6.90;50.86;95891.91;5063918;28;20040;-67
2022/04/15 01:38:02;;;;;;;9.93;6.40;;;;;;;6.83;51.17;95888.09;5064910;28;20517;-68
2022/04/15 01:40:28;;;;;;;11.98;6.38;;;;;;;6.72;50.78;95895.28;5046311;28;20024;-67
2022/04/15 01:42:53;;;;;;;9.88;5.95;;;;;;;6.73;50.83;95885.44;5064636;28;20097;-68
2022/04/15 01:45:19;;;;;;;10.23;6.30;;;;;;;6.72;51.72;95884.63;5046496;28;20242;-67
2022/04/15 01:47:44;;;;;;;15.13;6.40;;;;;;;6.74;50.26;95879.97;5064698;28;20025;-68
2022/04/15 01:50:10;;;;;;;13.30;5.97;;;;;;;6.73;50.19;95883.63;5064930;28;20033;-68
2022/04/15 01:52:36;;;;;;;10.18;6.10;;;;;;;6.72;50.49;95879.28;5063825;28;20532;-68
2022/04/15 01:55:01;;;;;;;15.05;5.95;;;;;;;6.66;50.99;95887.81;5064897;28;20503;-68
2022/04/15 01:57:27;;;;;;;10.30;6.00;;;;;;;6.59;51.03;95889.38;5063853;28;20547;-68
2022/04/15 01:59:52;;;;;;;10.60;5.80;;;;;;;6.62;51.03;95878.44;5064438;28;20074;-68
2022/04/15 02:02:18;;;;;;;11.30;6.60;;;;;;;6.59;51.73;95876.91;5064247;28;20485;-67
2022/04/15 02:04:43;;;;;;;13.15;6.32;;;;;;;6.50;52.32;95873.25;5046380;28;20044;-68
2022/04/15 02:07:09;;;;;;;11.57;6.35;;;;;;;6.45;51.23;95880.00;5064079;28;20046;-68
2022/04/15 02:09:34;;;;;;;10.43;6.30;;;;;;;6.46;51.14;95882.53;5064072;28;20093;-69
2022/04/15 02:11:59;;;;;;;12.15;6.38;;;;;;;6.39;51.23;95884.03;5064458;28;20035;-68
2022/04/15 02:14:25;;;;;;;11.52;6.28;;;;;;;6.34;51.02;95872.97;5045839;28;20016;-69
2022/04/15 02:16:53;;;;;;;10.27;6.03;;;;;;;6.25;52.47;95878.16;5064625;28;20071;-68
2022/04/15 02:19:22;;;;;;;17.48;6.55;;;;;;;6.23;51.61;95876.59;5063764;28;20028;-67
2022/04/15 02:21:47;;;;;;;8.02;5.72;;;;;;;6.15;52.98;95871.97;5064260;28;20037;-68
2022/04/15 02:24:14;;;;;;;9.70;5.53;;;;;;;6.18;52.63;95869.88;5063681;28;20035;-69
2022/04/15 02:26:39;;;;;;;15.90;7.38;;;;;;;6.11;52.64;95859.94;5063865;28;20048;-67
2022/04/15 02:29:05;;;;;;;11.55;6.70;;;;;;;6.08;53.04;95863.69;5064036;28;20047;-69
2022/04/15 02:31:30;;;;;;;9.90;5.97;;;;;;;6.10;52.55;95868.88;5063596;28;20028;-68
2022/04/15 02:33:56;;;;;;;14.20;6.72;;;;;;;6.21;51.01;95870.59;5067182;28;20024;-68
2022/04/15 02:36:21;;;;;;;12.32;5.70;;;;;;;6.17;51.08;95873.50;5067373;28;20024;-67
2022/04/15 02:38:46;;;;;;;11.15;5.88;;;;;;;6.14;52.04;95870.31;5067542;28;20479;-68
2022/04/15 02:41:12;;;;;;;11.38;6.60;;;;;;;6.09;52.09;95869.88;5067337;28;20507;-67
2022/04/15 02:43:38;;;;;;;9.77;6.70;;;;;;;6.08;52.03;95865.53;5032846;28;20517;-69
2022/04/15 02:46:04;;;;;;;12.02;6.88;;;;;;;6.11;52.12;95870.59;5067143;28;20032;-68
2022/04/15 02:48:30;;;;;;;13.35;7.50;;;;;;;6.08;52.86;95865.53;5067410;28;20499;-68
2022/04/15 02:50:56;;;;;;;11.90;6.93;;;;;;;6.11;51.87;95859.94;5067628;28;20039;-68
2022/04/15 02:53:22;;;;;;;10.45;6.45;;;;;;;6.09;52.51;95864.53;5067051;28;20016;-68
2022/04/15 02:55:47;;;;;;;10.57;6.47;;;;;;;6.00;53.14;95864.34;5067208;28;20058;-68
2022/04/15 02:58:13;;;;;;;11.75;6.72;;;;;;;5.98;53.54;95874.28;5048997;28;20017;-68
2022/04/15 03:00:38;;;;;;;10.75;6.45;;;;;;;6.02;52.45;95865.06;5067518;28;20016;-68
2022/04/15 03:03:04;;;;;;;14.75;6.65;;;;;;;5.97;53.20;95875.28;5066767;28;20055;-68
2022/04/15 03:05:30;;;;;;;11.82;6.57;;;;;;;5.96;53.15;95875.41;5067632;28;20198;-68
2022/04/15 03:07:55;;;;;;;15.25;7.25;;;;;;;5.99;52.40;95877.81;5066792;28;20028;-68
2022/04/15 03:10:21;;;;;;;18.15;8.75;;;;;;;5.63;54.22;95875.59;5066787;28;20082;-69
2022/04/15 03:12:46;;;;;;;15.15;7.35;;;;;;;5.64;54.36;95877.31;5049352;28;20048;-68
2022/04/15 03:15:12;;;;;;;20.88;8.45;;;;;;;5.59;54.24;95876.88;5048220;28;20126;-68
2022/04/15 03:17:37;;;;;;;15.02;7.70;;;;;;;5.48;55.08;95873.31;5067140;28;20040;-68
2022/04/15 03:20:04;;;;;;;14.23;7.57;;;;;;;5.57;54.33;95872.53;5066392;28;20421;-69
2022/04/15 03:22:30;;;;;;;17.38;8.48;;;;;;;5.40;55.72;95868.66;5067133;28;20025;-68
2022/04/15 03:24:55;;;;;;;12.50;7.90;;;;;;;5.44;55.46;95870.09;5066001;28;20454;-68
2022/04/15 03:27:21;;;;;;;16.73;7.93;;;;;;;5.52;54.01;95871.22;5066695;28;20041;-68
2022/04/15 03:29:46;;;;;;;13.25;8.20;;;;;;;5.48;54.90;95881.28;5048979;28;20032;-68
2022/04/15 03:32:12;;;;;;;13.20;9.23;;;;;;;5.46;53.93;95877.94;5066030;28;20020;-69
2022/04/15 03:34:37;;;;;;;17.45;7.78;;;;;;;5.48;54.97;95881.28;5049110;28;20026;-68
2022/04/15 03:37:06;;;;;;;13.10;8.20;;;;;;;5.51;54.88;95888.19;5065966;28;20024;-67
2022/04/15 03:39:31;;;;;;;13.13;7.93;;;;;;;5.45;55.45;95894.88;5066726;28;20036;-67
2022/04/15 03:41:57;;;;;;;18.88;9.13;;;;;;;5.44;54.85;95890.53;5066128;28;20028;-68
2022/04/15 03:44:22;;;;;;;16.15;9.68;;;;;;;5.40;54.96;95889.13;5066275;28;20379;-68
2022/04/15 03:46:48;;;;;;;16.23;9.23;;;;;;;5.45;55.37;95897.53;5048074;28;20024;-68
2022/04/15 03:49:13;;;;;;;14.93;8.80;;;;;;;5.38;54.00;95893.72;5066180;28;20020;-69
2022/04/15 03:51:39;;;;;;;13.30;8.15;;;;;;;5.25;53.82;95889.47;5048697;28;20020;-67
2022/04/15 03:54:04;;;;;;;19.85;9.40;;;;;;;5.21;54.40;95896.03;5031015;28;20517;-69
2022/04/15 03:56:30;;;;;;;14.63;7.25;;;;;;;5.23;54.02;95899.41;5066603;28;20138;-68
2022/04/15 03:58:55;;;;;;;9.90;7.18;;;;;;;5.17;54.41;95897.28;5066202;28;20494;-67
2022/04/15 04:01:21;;;;;;;15.38;8.60;;;;;;;5.23;54.86;95899.41;5065859;28;20600;-68
2022/04/15 04:03:46;;;;;;;20.77;10.40;;;;;;;5.25;54.59;95902.78;5065652;28;20028;-67
2022/04/15 04:06:12;;;;;;;15.30;8.07;;;;;;;5.21;55.17;95897.84;5065849;28;20021;-68
2022/04/15 04:08:37;;;;;;;17.23;8.07;;;;;;;5.15;55.40;95900.06;5066208;28;20044;-68
2022/04/15 04:11:03;;;;;;;19.10;6.85;;;;;;;5.17;55.03;95900.78;5065511;28;20021;-67
2022/04/15 04:13:28;;;;;;;12.70;6.43;;;;;;;5.21;54.46;95897.84;5066003;28;20102;-68
2022/04/15 04:15:54;;;;;;;14.57;6.82;;;;;;;5.21;55.01;95905.84;5047375;28;20074;-68
2022/04/15 04:18:21;;;;;;;11.93;6.68;;;;;;;5.23;55.10;95899.41;5065975;28;20091;-70
2022/04/15 04:20:50;;;;;;;16.90;7.07;;;;;;;5.20;55.43;95910.31;5065349;28;20555;-70
2022/04/15 04:23:16;;;;;;;15.30;7.65;;;;;;;5.29;55.00;95917.47;5065532;28;20021;-68
2022/04/15 04:25:41;;;;;;;14.98;6.75;;;;;;;5.37;54.83;95916.00;5065138;28;20086;-67
2022/04/15 04:28:07;;;;;;;15.18;6.75;;;;;;;5.41;54.31;95914.75;5065696;28;20168;-68
2022/04/15 04:30:32;;;;;;;16.20;7.63;;;;;;;5.51;54.35;95918.31;5047452;28;20021;-69
2022/04/15 04:32:59;;;;;;;16.38;7.15;;;;;;;5.57;53.54;95917.78;5064817;28;20029;-69
2022/04/15 04:35:25;;;;;;;17.15;7.40;;;;;;;5.61;53.60;95920.16;5031496;28;20106;-69
2022/04/15 04:37:50;;;;;;;15.98;7.20;;;;;;;5.62;53.06;95919.16;5065174;28;20031;-68
2022/04/15 04:40:16;;;;;;;17.60;7.82;;;;;;;5.62;53.59;95914.69;5065331;28;20032;-69
2022/04/15 04:42:42;;;;;;;13.13;7.57;;;;;;;5.83;53.83;95921.78;5046649;28;20600;-69
2022/04/15 04:45:10;;;;;;;17.77;7.88;;;;;;;5.86;52.82;95920.66;5047461;28;20119;-68
2022/04/15 04:47:35;;;;;;;18.40;8.10;;;;;;;5.99;52.77;95920.41;5047319;28;20502;-68
2022/04/15 04:50:01;;;;;;;23.73;9.55;;;;;;;6.17;51.71;95925.97;5064637;28;20021;-68
2022/04/15 04:52:26;;;;;;;22.65;10.73;;;;;;;6.41;51.79;95920.25;5047387;28;20032;-70
2022/04/15 04:54:52;;;;;;;17.75;10.00;;;;;;;6.66;51.47;95927.81;5046128;28;20108;-67
2022/04/15 04:57:17;;;;;;;20.45;10.10;;;;;;;6.86;51.22;95930.47;5065001;28;20066;-69
2022/04/15 04:59:43;;;;;;;18.50;11.07;;;;;;;7.06;50.89;95933.97;5064428;28;20021;-68
2022/04/15 05:02:10;;;;;;;24.95;10.60;;;;;;;7.28;50.64;95931.97;5065095;28;20100;-69
2022/04/15 05:04:36;;;;;;;24.73;10.25;;;;;;;7.43;49.49;95932.34;5064356;28;20032;-68
2022/04/15 05:07:03;;;;;;;20.92;10.65;;;;;;;7.63;49.23;95938.47;5046987;28;20063;-68
2022/04/15 05:09:28;;;;;;;21.10;10.98;;;;;;;7.84;47.75;95941.88;5065024;28;20024;-68
2022/04/15 05:11:53;;;;;;;22.60;10.95;;;;;;;8.03;47.33;95943.63;5064557;28;20028;-69
2022/04/15 05:14:19;;;;;;;26.92;12.13;;;;;;;8.26;46.72;95936.06;5065228;28;20032;-69
2022/04/15 05:16:44;;;;;;;20.58;10.98;;;;;;;8.46;46.71;95940.44;5064188;28;20079;-68
2022/04/15 05:19:10;;;;;;;22.95;10.93;;;;;;;8.61;46.11;95940.78;5065012;28;20847;-68
2022/04/15 05:21:35;;;;;;;21.77;11.27;;;;;;;8.81;46.03;95937.94;5064141;28;20029;-68
2022/04/15 05:24:01;;;;;;;21.63;11.77;;;;;;;8.90;45.85;95937.03;5064751;28;20024;-68
2022/04/15 05:26:33;;;;;;;25.42;11.38;;;;;;;9.10;45.79;95936.84;5064353;28;20124;-69
2022/04/15 05:28:58;;;;;;;22.00;11.25;;;;;;;9.27;45.64;95932.47;5064269;28;20037;-69
2022/04/15 05:31:24;;;;;;;29.63;11.88;;;;;;;9.48;45.46;95933.97;5064854;28;20081;-69
2022/04/15 05:33:49;;;;;;;15.45;10.07;;;;;;;9.70;45.34;95932.56;5063925;28;20032;-68
2022/04/15 05:36:16;;;;;;;18.48;9.27;;;;;;;9.84;44.68;95928.44;5065049;28;20380;-70
2022/04/15 05:38:41;;;;;;;18.55;9.77;;;;;;;9.99;45.10;95934.06;5064210;28;20044;-69
2022/04/15 05:41:07;;;;;;;15.85;9.05;;;;;;;10.22;45.15;95935.31;5064983;28;20035;-68
2022/04/15 05:43:32;;;;;;;15.27;10.85;;;;;;;10.41;45.35;95936.88;5064114;28;20052;-68
2022/04/15 05:45:58;;;;;;;18.17;9.15;;;;;;;10.55;45.23;95937.25;5064402;28;20037;-69
2022/04/15 05:48:23;;;;;;;15.57;8.60;;;;;;;10.73;44.09;95931.75;5064827;28;20394;-67
2022/04/15 05:50:48;;;;;;;12.90;8.15;;;;;;;10.94;42.92;95935.81;5063766;28;20020;-69
2022/04/15 05:53:14;;;;;;;15.45;7.90;;;;;;;11.03;42.60;95924.06;5064634;28;20016;-69
2022/04/15 05:55:39;;;;;;;17.17;8.02;;;;;;;11.22;42.07;95930.94;5063914;28;20051;-69
2022/04/15 05:58:06;;;;;;;15.15;7.55;;;;;;;11.34;41.37;95925.22;5064774;28;20545;-69
2022/04/15 06:00:31;;;;;;;14.27;7.68;;;;;;;11.54;42.00;95928.41;5064350;28;20017;-68
2022/04/15 06:02:56;;;;;;;14.70;8.27;;;;;;;11.77;41.70;95927.66;5064400;28;20405;-67
2022/04/15 06:05:24;;;;;;;20.30;8.60;;;;;;;11.85;41.02;95924.09;5064594;28;20398;-67
2022/04/15 06:07:50;;;;;;;14.43;8.40;;;;;;;11.99;40.43;95923.38;5066918;28;20103;-69
2022/04/15 06:10:15;;;;;;;15.23;8.70;;;;;;;12.05;40.39;95919.16;5068619;28;20020;-68
2022/04/15 06:15:30;;;;;;;16.80;8.73;;;;;;;12.36;40.50;95920.25;5068475;28;20074;-68
2022/04/15 06:17:56;;;;;;;17.35;8.82;;;;;;;12.49;40.15;95919.66;5067606;28;20475;-68
2022/04/15 06:20:21;;;;;;;17.38;9.18;;;;;;;12.74;39.47;95911.44;5068344;28;20025;-68
2022/04/15 06:22:47;;;;;;;16.55;9.27;;;;;;;12.88;38.46;95912.50;5067845;28;20028;-68
2022/04/15 06:25:12;;;;;;;15.02;8.98;;;;;;;12.97;38.32;95911.44;5067135;28;20560;-68
2022/04/15 06:27:38;;;;;;;14.02;8.68;;;;;;;13.09;37.98;95913.72;5068127;28;20037;-68
2022/04/15 06:30:03;;;;;;;16.95;8.93;;;;;;;13.15;38.59;95915.66;5067093;28;20376;-68
2022/04/15 06:32:29;;;;;;;17.23;9.27;;;;;;;13.30;38.69;95913.00;5067741;28;20058;-68
2022/04/15 06:34:54;;;;;;;14.80;9.07;;;;;;;13.52;38.15;95907.78;5066882;28;20447;-68
2022/04/15 06:37:20;;;;;;;17.95;9.82;;;;;;;13.69;38.08;95916.53;5049569;28;20028;-68
2022/04/15 06:39:50;;;;;;;27.08;9.82;;;;;;;13.72;38.06;95904.53;5067485;28;20028;-68
2022/04/15 06:42:22;;;;;;;16.38;9.05;;;;;;;13.85;37.42;95901.19;5067243;28;20020;-68
2022/04/15 06:44:48;;;;;;;14.95;9.27;;;;;;;14.01;37.03;95892.06;5050940;28;20032;-69
2022/04/15 06:47:13;;;;;;;18.58;10.30;;;;;;;14.16;35.99;95897.47;5066752;28;20028;-68
2022/04/15 06:49:39;;;;;;;16.27;9.88;;;;;;;14.27;35.39;95895.28;5067680;28;20028;-69
2022/04/15 06:52:04;;;;;;;15.63;9.45;;;;;;;14.45;35.02;95894.88;5066769;28;20024;-69
2022/04/15 06:54:30;;;;;;;17.27;9.15;;;;;;;14.62;34.80;95892.78;5067621;28;20131;-69
2022/04/15 06:56:55;;;;;;;17.17;10.23;;;;;;;14.80;35.05;95894.22;5066850;28;20024;-69
2022/04/15 06:59:21;;;;;;;18.45;10.30;;;;;;;14.90;35.08;95897.47;5067160;28;20028;-69
2022/04/15 07:01:46;;;;;;;19.92;10.45;;;;;;;15.03;34.91;95890.50;5067339;28;20044;-68
2022/04/15 07:04:12;;;;;;;20.60;9.65;;;;;;;15.12;34.36;95893.94;5066508;28;20021;-70
2022/04/15 07:06:37;;;;;;;16.85;10.10;;;;;;;15.24;33.98;95896.91;5067501;28;20036;-67
2022/04/15 07:09:03;;;;;;;16.48;10.60;;;;;;;15.37;33.98;95888.09;5066675;28;20441;-68
2022/04/15 07:11:28;;;;;;;17.60;9.88;;;;;;;15.50;33.97;95890.06;5067312;28;20487;-69
2022/04/15 07:13:53;;;;;;;17.67;10.00;;;;;;;15.63;33.56;95889.31;5066613;28;20024;-68
2022/04/15 07:16:19;;;;;;;13.13;7.88;;;;;;;15.50;34.44;95890.06;5066869;28;20036;-68
2022/04/15 07:18:44;;;;;;;13.93;7.72;;;;;;;15.48;33.99;95886.69;5066122;28;20027;-68
2022/04/15 07:21:11;;;;;;;16.33;8.13;;;;;;;15.76;33.71;95888.56;5066715;28;20021;-68
2022/04/15 07:23:36;;;;;;;12.27;5.95;;;;;;;15.78;33.05;95881.91;5066956;28;20486;-68
2022/04/15 07:26:02;;;;;;;13.75;6.65;;;;;;;15.83;33.09;95884.00;5065968;28;20072;-68
2022/04/15 07:28:27;;;;;;;13.55;6.13;;;;;;;15.84;32.82;95877.59;5067103;28;20536;-68
2022/04/15 07:30:53;;;;;;;11.52;6.88;;;;;;;15.96;32.27;95871.63;5066266;28;20020;-68
2022/04/15 07:33:19;;;;;;;11.85;6.40;;;;;;;16.17;32.39;95876.94;5066493;28;20453;-68
2022/04/15 07:35:45;;;;;;;16.17;8.07;;;;;;;16.28;31.73;95866.59;5066393;28;20033;-69
2022/04/15 07:38:10;;;;;;;11.05;6.47;;;;;;;16.38;32.11;95874.34;5066421;28;20024;-69
2022/04/15 07:40:36;;;;;;;20.50;6.95;;;;;;;16.31;32.33;95868.88;5066127;28;20040;-69
2022/04/15 07:43:01;;;;;;;12.02;6.88;;;;;;;16.46;31.67;95867.91;5066066;28;20550;-68
2022/04/15 07:45:27;;;;;;;12.52;6.18;;;;;;;16.54;31.97;95868.53;5066256;28;20032;-68
2022/04/15 07:47:52;;;;;;;11.70;6.55;;;;;;;16.60;31.66;95861.47;5065744;28;20032;-68
2022/04/15 07:50:24;;;;;;;9.52;6.28;;;;;;;16.71;32.57;95861.91;5066339;28;20028;-68
2022/04/15 07:52:56;;;;;;;11.80;5.88;;;;;;;16.31;31.53;95858.88;5066051;28;20032;-67
2022/04/15 07:55:22;;;;;;;11.98;5.75;;;;;;;16.39;31.98;95865.16;5066121;28;20029;-69
2022/04/15 07:57:48;;;;;;;18.42;6.22;;;;;;;16.58;31.70;95868.13;5066309;28;20031;-69
2022/04/15 08:00:14;;;;;;;12.50;5.68;;;;;;;16.64;30.82;95865.44;5065604;28;20625;-69
2022/04/15 08:02:39;;;;;;;12.35;5.70;;;;;;;16.75;30.86;95853.16;5066398;28;20107;-68
2022/04/15 08:05:05;;;;;;;26.08;6.45;;;;;;;16.87;30.46;95856.09;5065562;28;20033;-68
2022/04/15 08:07:30;;;;;;;14.05;6.18;;;;;;;17.00;30.92;95851.72;5065938;28;20056;-69
2022/04/15 08:09:56;;;;;;;12.20;5.95;;;;;;;17.13;29.99;95853.66;5065679;28;20035;-68
2022/04/15 08:12:21;;;;;;;11.43;6.53;;;;;;;17.28;29.26;95848.03;5065924;28;20410;-69
2022/04/15 08:14:47;;;;;;;12.95;7.50;;;;;;;17.38;28.54;95845.72;5065472;28;20021;-69
2022/04/15 08:17:12;;;;;;;11.02;6.88;;;;;;;17.43;27.73;95845.06;5065558;28;20024;-69
2022/04/15 08:19:38;;;;;;;12.55;7.05;;;;;;;17.38;27.82;95845.72;5065800;28;20028;-69
2022/04/15 08:22:04;;;;;;;17.38;7.07;;;;;;;17.05;28.38;95843.81;5065280;28;20487;-69
2022/04/15 08:24:29;;;;;;;15.15;6.53;;;;;;;17.13;28.66;95842.81;5065553;28;20064;-68
2022/04/15 08:26:56;;;;;;;18.73;5.95;;;;;;;17.27;28.59;95838.22;5065103;28;20430;-69
2022/04/15 08:29:22;;;;;;;11.35;6.03;;;;;;;17.23;28.08;95836.97;5065251;28;20025;-70
2022/04/15 08:31:47;;;;;;;10.23;5.13;;;;;;;17.36;27.89;95836.94;5064500;28;20031;-68
2022/04/15 08:34:13;;;;;;;10.63;5.40;;;;;;;17.50;28.99;95834.22;5065392;28;20051;-68
2022/04/15 08:36:38;;;;;;;10.63;5.32;;;;;;;17.70;27.93;95831.47;5065011;28;20028;-68
2022/04/15 08:39:05;;;;;;;11.77;5.35;;;;;;;17.79;28.46;95823.94;5065012;28;20033;-68
2022/04/15 08:41:31;;;;;;;8.52;4.97;;;;;;;17.97;28.15;95819.72;5065421;28;20037;-68
2022/04/15 08:43:56;;;;;;;10.63;4.15;;;;;;;18.05;29.17;95816.75;5030309;28;20082;-68
2022/04/15 08:46:23;;;;;;;8.02;3.72;;;;;;;18.04;26.99;95815.06;5031060;28;20098;-69
2022/04/15 08:48:48;;;;;;;5.57;3.40;;;;;;;17.89;27.92;95810.75;5064864;28;20499;-69
2022/04/15 08:51:14;;;;;;;8.80;3.83;;;;;;;18.02;27.41;95812.56;5047410;28;20483;-69
2022/04/15 08:53:39;;;;;;;10.73;4.10;;;;;;;18.09;27.89;95807.13;5029977;28;20028;-68
2022/04/15 08:56:05;;;;;;;6.80;3.58;;;;;;;18.15;27.75;95795.44;5030713;28;20027;-68
2022/04/15 08:58:30;;;;;;;13.63;4.13;;;;;;;18.26;27.85;95802.09;5064947;28;20035;-69
2022/04/15 09:00:56;;;;;;;11.25;3.90;;;;;;;18.43;28.04;95796.13;5064548;28;20025;-68
2022/04/15 09:03:21;;;;;;;6.35;4.10;;;;;;;18.51;27.57;95792.31;5047307;28;20020;-68
2022/04/15 09:05:51;;;;;;;8.80;3.70;;;;;;;18.62;27.67;95788.91;5064530;28;20119;-69
2022/04/15 09:08:16;;;;;;;6.07;3.97;;;;;;;18.76;28.35;95786.94;5065388;28;20074;-69
2022/04/15 09:10:42;;;;;;;6.60;4.25;;;;;;;18.36;28.56;95777.16;5064724;28;20028;-67
2022/04/15 09:13:18;;;;;;;5.90;3.63;;;;;;;18.50;28.44;95775.22;5065156;28;20032;-67
2022/04/15 09:15:44;;;;;;;11.57;4.50;;;;;;;18.61;28.41;95775.53;5065009;28;20027;-68
2022/04/15 09:18:09;;;;;;;7.60;4.10;;;;;;;18.69;28.48;95763.56;5064498;28;20025;-68
2022/04/15 09:20:35;;;;;;;11.68;4.75;;;;;;;18.72;28.55;95755.81;5065237;28;20032;-68
2022/04/15 09:23:08;;;;;;;15.07;4.63;;;;;;;18.79;28.52;95753.06;5064372;28;20024;-68
2022/04/15 09:25:34;;;;;;;9.35;4.10;;;;;;;18.96;28.25;95752.50;5064829;28;20036;-68
2022/04/15 09:28:00;;;;;;;9.65;4.57;;;;;;;19.05;28.13;95756.59;5046915;28;20021;-68
2022/04/15 09:30:41;;;;;;;10.82;4.13;;;;;;;19.13;28.58;95748.19;5065084;28;20274;-68
2022/04/15 09:33:09;;;;;;;11.07;4.40;;;;;;;19.15;28.02;95747.97;5065059;28;20074;-68
2022/04/15 09:35:34;;;;;;;7.13;4.13;;;;;;;19.21;28.43;95738.06;5046871;28;20021;-68
2022/04/15 09:38:03;;;;;;;11.13;4.60;;;;;;;19.21;28.03;95732.63;5065134;28;20490;-68
2022/04/15 09:40:31;;;;;;;12.75;4.97;;;;;;;19.31;28.97;95730.25;5064381;28;20051;-68
2022/04/15 09:42:57;;;;;;;10.13;4.88;;;;;;;19.32;28.09;95726.47;5067977;28;20082;-69
2022/04/15 09:45:27;;;;;;;10.25;4.32;;;;;;;19.34;27.87;95715.34;5068288;28;20028;-68
2022/04/15 09:47:53;;;;;;;8.57;4.60;;;;;;;19.24;28.09;95715.88;5050878;28;20071;-68
2022/04/15 09:50:23;;;;;;;7.72;5.10;;;;;;;19.31;28.12;95702.22;5068997;28;20056;-68
2022/04/15 09:52:50;;;;;;;8.82;4.70;;;;;;;19.37;28.40;95706.75;5068043;28;20028;-68
2022/04/15 09:55:15;;;;;;;9.00;4.50;;;;;;;19.46;30.80;95699.13;5068746;28;20017;-68
2022/04/15 09:57:41;;;;;;;8.75;4.88;;;;;;;19.46;29.16;95696.41;5033456;28;20029;-68
2022/04/15 10:00:11;;;;;;;9.43;4.47;;;;;;;19.52;29.00;95698.22;5033908;28;20039;-69
2022/04/15 10:02:36;;;;;;;10.27;6.57;;;;;;;19.60;28.54;95694.34;5068388;28;20033;-69
2022/04/15 10:05:02;;;;;;;8.68;4.90;;;;;;;19.67;27.75;95683.41;5033643;28;20731;-68
2022/04/15 10:07:28;;;;;;;10.63;5.82;;;;;;;19.59;27.10;95682.63;5068219;28;20029;-68
2022/04/15 10:09:53;;;;;;;11.15;4.82;;;;;;;19.63;27.32;95670.25;5067951;28;20561;-69
2022/04/15 10:12:19;;;;;;;11.23;5.20;;;;;;;19.74;28.06;95671.34;5050774;28;20036;-68
2022/04/15 10:14:44;;;;;;;14.18;5.57;;;;;;;19.77;27.11;95659.19;5067661;28;20021;-68
2022/04/15 10:17:09;;;;;;;11.23;5.10;;;;;;;19.62;27.35;95660.41;5068407;28;20029;-68
2022/04/15 10:19:35;;;;;;;8.32;5.03;;;;;;;19.61;27.14;95663.34;5033317;28;20490;-69
2022/04/15 10:22:00;;;;;;;12.70;5.25;;;;;;;19.72;27.69;95653.59;5068252;28;20031;-68
2022/04/15 10:24:26;;;;;;;9.50;5.05;;;;;;;19.77;27.55;95659.19;5067853;28;20020;-68
2022/04/15 10:26:57;;;;;;;15.50;5.07;;;;;;;19.75;26.59;95653.13;5049655;28;20495;-69
2022/04/15 10:29:22;;;;;;;12.45;5.72;;;;;;;19.74;27.40;95646.88;5068220;28;20021;-68
2022/04/15 10:31:54;;;;;;;10.00;5.35;;;;;;;19.77;27.75;95640.97;5049685;28;20028;-69
2022/04/15 10:34:20;;;;;;;12.07;5.53;;;;;;;19.88;28.40;95642.06;5068311;28;20051;-68
2022/04/15 10:36:49;;;;;;;10.88;5.43;;;;;;;19.97;28.38;95641.75;5067690;28;20082;-68
2022/04/15 10:39:16;;;;;;;9.23;4.95;;;;;;;20.08;28.45;95637.41;5067812;28;20024;-69
2022/04/15 10:41:41;;;;;;;13.75;4.90;;;;;;;19.99;26.41;95632.28;5067613;28;20475;-69
2022/04/15 10:44:31;;;;;;;10.35;4.72;;;;;;;20.05;26.89;95625.13;5067391;28;20115;-68
2022/04/15 10:47:11;;;;;;;8.60;4.80;;;;;;;20.24;27.19;95622.31;5067941;28;20090;-68
2022/04/15 10:49:39;;;;;;;13.48;5.20;;;;;;;20.36;27.40;95612.25;5067368;28;20029;-69
2022/04/15 10:52:25;;;;;;;8.10;5.18;;;;;;;20.38;26.61;95618.31;5067517;28;20027;-69
2022/04/15 10:54:56;;;;;;;7.93;4.32;;;;;;;20.35;27.01;95610.59;5066306;28;20369;-68
2022/04/15 10:57:22;;;;;;;9.57;4.30;;;;;;;20.39;25.58;95605.53;5067110;28;20399;-68
2022/04/15 11:02:40;;;;;;;9.45;4.20;;;;;;;20.55;25.23;95598.53;5046652;28;20124;-69
2022/04/15 11:05:08;;;;;;;8.23;4.53;;;;;;;20.57;25.18;95592.88;5046311;28;20024;-68
2022/04/15 11:07:50;;;;;;;10.10;4.35;;;;;;;20.67;24.76;95595.81;5028640;28;20427;-68
2022/04/15 11:10:42;;;;;;;12.60;5.53;;;;;;;20.79;24.10;95586.78;5047024;28;20048;-68
2022/04/15 11:13:08;;;;;;;15.55;4.00;;;;;;;21.01;24.47;95591.69;5053829;28;20115;-69
2022/04/15 11:15:55;;;;;;;9.10;4.65;;;;;;;21.09;24.10;95583.09;5061878;28;20027;-69
2022/04/15 11:18:21;;;;;;;9.45;6.07;;;;;;;21.13;22.78;95576.13;5061706;28;20486;-69
2022/04/15 11:20:46;;;;;;;12.30;6.38;;;;;;;21.29;23.00;95576.41;5048743;28;20035;-69
2022/04/15 11:23:12;;;;;;;16.02;8.57;;;;;;;21.36;22.26;95572.47;5062154;28;20029;-68
2022/04/15 11:25:44;;;;;;;13.40;5.63;;;;;;;21.45;21.68;95572.09;5047782;28;20491;-67
2022/04/15 11:28:09;;;;;;;10.70;3.75;;;;;;;21.51;20.91;95562.09;5064638;28;20120;-68
2022/04/15 11:30:35;;;;;;;9.20;4.57;;;;;;;21.49;21.51;95563.19;5065687;28;20468;-68